sensor_id;sensor_type;location;lat;lon;timestamp;P1;durP1;ratioP1;P2;durP2;ratioP2
71166;SDS011;58864;45.928;20.078;2022-10-16T00:01:23;9.00;;;3.70;;
71166;SDS011;58864;45.928;20.078;2022-10-16T00:03:49;9.27;;;3.60;;
71166;SDS011;58864;45.928;20.078;2022-10-16T00:06:15;11.02;;;3.92;;
71166;SDS011;58864;45.928;20.078;2022-10-16T00:08:41;10.57;;;3.43;;
71166;SDS011;58864;45.928;20.078;2022-10-16T00:11:10;11.88;;;3.45;;
71166;SDS011;58864;45.928;20.078;2022-10-16T00:13:38;9.02;;;3.30;;
71166;SDS011;58864;45.928;20.078;2022-10-16T00:16:06;8.63;;;3.60;;
71166;SDS011;58864;45.928;20.078;2022-10-16T00:18:38;8.00;;;3.25;;
71166;SDS011;58864;45.928;20.078;2022-10-16T00:21:06;8.10;;;3.90;;
71166;SDS011;58864;45.928;20.078;2022-10-16T00:23:36;8.18;;;3.15;;
71166;SDS011;58864;45.928;20.078;2022-10-16T00:26:08;7.53;;;3.38;;
71166;SDS011;58864;45.928;20.078;2022-10-16T00:28:37;9.57;;;3.80;;
71166;SDS011;58864;45.928;20.078;2022-10-16T00:31:08;8.98;;;3.40;;
71166;SDS011;58864;45.928;20.078;2022-10-16T00:33:37;7.93;;;3.43;;
71166;SDS011;58864;45.928;20.078;2022-10-16T00:36:07;9.88;;;4.00;;
71166;SDS011;58864;45.928;20.078;2022-10-16T00:38:37;8.02;;;3.45;;
71166;SDS011;58864;45.928;20.078;2022-10-16T00:41:04;9.60;;;3.50;;
71166;SDS011;58864;45.928;20.078;2022-10-16T00:43:34;9.23;;;3.70;;
71166;SDS011;58864;45.928;20.078;2022-10-16T00:46:04;8.10;;;3.70;;
71166;SDS011;58864;45.928;20.078;2022-10-16T00:49:02;8.63;;;3.17;;
71166;SDS011;58864;45.928;20.078;2022-10-16T00:51:43;10.68;;;3.92;;
71166;SDS011;58864;45.928;20.078;2022-10-16T00:54:13;11.90;;;3.97;;
71166;SDS011;58864;45.928;20.078;2022-10-16T00:56:42;9.45;;;4.05;;
71166;SDS011;58864;45.928;20.078;2022-10-16T00:59:14;11.03;;;3.90;;
71166;SDS011;58864;45.928;20.078;2022-10-16T01:01:40;9.18;;;3.83;;
71166;SDS011;58864;45.928;20.078;2022-10-16T01:04:07;8.80;;;3.78;;
71166;SDS011;58864;45.928;20.078;2022-10-16T01:06:39;8.68;;;3.60;;
71166;SDS011;58864;45.928;20.078;2022-10-16T01:14:42;9.60;;;4.00;;
71166;SDS011;58864;45.928;20.078;2022-10-16T01:28:47;11.60;;;4.60;;
71166;SDS011;58864;45.928;20.078;2022-10-16T01:31:32;8.43;;;3.95;;
71166;SDS011;58864;45.928;20.078;2022-10-16T01:34:13;8.80;;;4.22;;
71166;SDS011;58864;45.928;20.078;2022-10-16T01:36:48;10.53;;;3.73;;
71166;SDS011;58864;45.928;20.078;2022-10-16T01:39:20;9.68;;;4.05;;
71166;SDS011;58864;45.928;20.078;2022-10-16T01:44:47;10.00;;;4.45;;
71166;SDS011;58864;45.928;20.078;2022-10-16T01:47:12;10.63;;;4.00;;
71166;SDS011;58864;45.928;20.078;2022-10-16T01:49:40;11.63;;;4.20;;
71166;SDS011;58864;45.928;20.078;2022-10-16T01:52:08;10.52;;;4.05;;
71166;SDS011;58864;45.928;20.078;2022-10-16T01:54:37;9.63;;;4.03;;
71166;SDS011;58864;45.928;20.078;2022-10-16T01:57:05;11.10;;;4.38;;
71166;SDS011;58864;45.928;20.078;2022-10-16T01:59:32;10.18;;;3.88;;
71166;SDS011;58864;45.928;20.078;2022-10-16T02:02:01;8.70;;;3.93;;
71166;SDS011;58864;45.928;20.078;2022-10-16T02:04:50;13.93;;;4.13;;
71166;SDS011;58864;45.928;20.078;2022-10-16T02:07:17;12.27;;;4.22;;
71166;SDS011;58864;45.928;20.078;2022-10-16T02:09:44;10.93;;;4.30;;
71166;SDS011;58864;45.928;20.078;2022-10-16T02:12:21;9.85;;;4.30;;
71166;SDS011;58864;45.928;20.078;2022-10-16T02:14:51;8.35;;;3.75;;
71166;SDS011;58864;45.928;20.078;2022-10-16T02:17:19;10.60;;;4.43;;
71166;SDS011;58864;45.928;20.078;2022-10-16T02:19:49;7.67;;;3.97;;
71166;SDS011;58864;45.928;20.078;2022-10-16T02:22:22;9.00;;;4.18;;
71166;SDS011;58864;45.928;20.078;2022-10-16T02:25:08;10.77;;;4.40;;
71166;SDS011;58864;45.928;20.078;2022-10-16T02:27:53;11.23;;;4.57;;
71166;SDS011;58864;45.928;20.078;2022-10-16T02:30:32;10.02;;;4.35;;
71166;SDS011;58864;45.928;20.078;2022-10-16T02:32:59;9.80;;;4.30;;
71166;SDS011;58864;45.928;20.078;2022-10-16T02:35:25;11.27;;;4.18;;
71166;SDS011;58864;45.928;20.078;2022-10-16T02:37:54;11.60;;;4.00;;
71166;SDS011;58864;45.928;20.078;2022-10-16T02:40:20;11.48;;;4.55;;
71166;SDS011;58864;45.928;20.078;2022-10-16T02:42:50;9.07;;;4.55;;
71166;SDS011;58864;45.928;20.078;2022-10-16T02:45:19;9.60;;;4.43;;
71166;SDS011;58864;45.928;20.078;2022-10-16T02:47:44;10.82;;;4.45;;
71166;SDS011;58864;45.928;20.078;2022-10-16T02:50:12;9.27;;;4.05;;
71166;SDS011;58864;45.928;20.078;2022-10-16T02:52:43;9.43;;;4.35;;
71166;SDS011;58864;45.928;20.078;2022-10-16T02:55:12;13.70;;;4.60;;
71166;SDS011;58864;45.928;20.078;2022-10-16T02:57:42;15.03;;;4.43;;
71166;SDS011;58864;45.928;20.078;2022-10-16T03:00:09;10.20;;;4.32;;
71166;SDS011;58864;45.928;20.078;2022-10-16T03:02:39;12.18;;;4.60;;
71166;SDS011;58864;45.928;20.078;2022-10-16T03:05:04;11.98;;;4.10;;
71166;SDS011;58864;45.928;20.078;2022-10-16T03:07:31;10.55;;;4.80;;
71166;SDS011;58864;45.928;20.078;2022-10-16T03:09:56;9.20;;;4.17;;
71166;SDS011;58864;45.928;20.078;2022-10-16T03:12:24;9.85;;;4.35;;
71166;SDS011;58864;45.928;20.078;2022-10-16T03:14:48;10.07;;;4.32;;
71166;SDS011;58864;45.928;20.078;2022-10-16T03:17:16;9.40;;;4.57;;
71166;SDS011;58864;45.928;20.078;2022-10-16T03:19:41;13.27;;;4.50;;
71166;SDS011;58864;45.928;20.078;2022-10-16T03:22:05;10.10;;;4.73;;
71166;SDS011;58864;45.928;20.078;2022-10-16T03:24:33;9.70;;;4.18;;
71166;SDS011;58864;45.928;20.078;2022-10-16T03:27:01;11.80;;;4.45;;
71166;SDS011;58864;45.928;20.078;2022-10-16T03:29:26;11.75;;;4.68;;
71166;SDS011;58864;45.928;20.078;2022-10-16T03:31:53;12.40;;;5.13;;
71166;SDS011;58864;45.928;20.078;2022-10-16T03:34:23;11.55;;;4.70;;
71166;SDS011;58864;45.928;20.078;2022-10-16T03:36:48;11.77;;;5.18;;
71166;SDS011;58864;45.928;20.078;2022-10-16T03:39:16;13.20;;;4.63;;
71166;SDS011;58864;45.928;20.078;2022-10-16T03:41:42;10.93;;;5.07;;
71166;SDS011;58864;45.928;20.078;2022-10-16T03:44:07;13.23;;;5.60;;
71166;SDS011;58864;45.928;20.078;2022-10-16T03:46:32;16.20;;;5.82;;
71166;SDS011;58864;45.928;20.078;2022-10-16T03:48:59;12.33;;;5.87;;
71166;SDS011;58864;45.928;20.078;2022-10-16T03:51:27;12.38;;;6.03;;
71166;SDS011;58864;45.928;20.078;2022-10-16T03:53:56;13.00;;;6.05;;
71166;SDS011;58864;45.928;20.078;2022-10-16T03:56:23;14.57;;;6.05;;
71166;SDS011;58864;45.928;20.078;2022-10-16T03:58:53;13.05;;;5.68;;
71166;SDS011;58864;45.928;20.078;2022-10-16T04:01:17;12.13;;;5.63;;
71166;SDS011;58864;45.928;20.078;2022-10-16T04:03:47;14.43;;;5.47;;
71166;SDS011;58864;45.928;20.078;2022-10-16T04:06:11;13.57;;;5.60;;
71166;SDS011;58864;45.928;20.078;2022-10-16T04:08:42;13.82;;;5.50;;
71166;SDS011;58864;45.928;20.078;2022-10-16T04:11:07;15.18;;;5.35;;
71166;SDS011;58864;45.928;20.078;2022-10-16T04:13:37;17.67;;;5.47;;
71166;SDS011;58864;45.928;20.078;2022-10-16T04:16:08;17.60;;;5.43;;
71166;SDS011;58864;45.928;20.078;2022-10-16T04:18:35;12.80;;;5.40;;
71166;SDS011;58864;45.928;20.078;2022-10-16T04:21:06;11.20;;;5.32;;
71166;SDS011;58864;45.928;20.078;2022-10-16T04:23:31;13.75;;;6.13;;
71166;SDS011;58864;45.928;20.078;2022-10-16T04:25:58;11.17;;;5.33;;
71166;SDS011;58864;45.928;20.078;2022-10-16T04:28:28;14.07;;;5.10;;
71166;SDS011;58864;45.928;20.078;2022-10-16T04:30:55;12.68;;;5.70;;
71166;SDS011;58864;45.928;20.078;2022-10-16T04:33:24;12.27;;;5.78;;
71166;SDS011;58864;45.928;20.078;2022-10-16T04:35:56;15.25;;;6.38;;
71166;SDS011;58864;45.928;20.078;2022-10-16T04:38:25;12.30;;;5.60;;
71166;SDS011;58864;45.928;20.078;2022-10-16T04:40:49;15.65;;;6.40;;
71166;SDS011;58864;45.928;20.078;2022-10-16T04:43:15;16.70;;;7.68;;
71166;SDS011;58864;45.928;20.078;2022-10-16T04:45:42;15.18;;;5.95;;
71166;SDS011;58864;45.928;20.078;2022-10-16T04:48:12;18.77;;;6.72;;
71166;SDS011;58864;45.928;20.078;2022-10-16T04:50:41;13.53;;;6.23;;
71166;SDS011;58864;45.928;20.078;2022-10-16T04:53:10;13.63;;;6.57;;
71166;SDS011;58864;45.928;20.078;2022-10-16T04:55:42;20.52;;;6.63;;
71166;SDS011;58864;45.928;20.078;2022-10-16T04:58:09;17.55;;;6.45;;
71166;SDS011;58864;45.928;20.078;2022-10-16T05:00:36;15.95;;;7.13;;
71166;SDS011;58864;45.928;20.078;2022-10-16T05:03:09;17.33;;;7.57;;
71166;SDS011;58864;45.928;20.078;2022-10-16T05:05:36;14.57;;;6.85;;
71166;SDS011;58864;45.928;20.078;2022-10-16T05:08:09;17.02;;;7.15;;
71166;SDS011;58864;45.928;20.078;2022-10-16T05:10:40;15.15;;;6.35;;
71166;SDS011;58864;45.928;20.078;2022-10-16T05:13:08;18.58;;;6.88;;
71166;SDS011;58864;45.928;20.078;2022-10-16T05:15:34;19.83;;;7.53;;
71166;SDS011;58864;45.928;20.078;2022-10-16T05:17:59;13.80;;;6.10;;
71166;SDS011;58864;45.928;20.078;2022-10-16T05:20:26;17.35;;;7.22;;
71166;SDS011;58864;45.928;20.078;2022-10-16T05:22:53;17.45;;;7.00;;
71166;SDS011;58864;45.928;20.078;2022-10-16T05:25:21;20.40;;;7.40;;
71166;SDS011;58864;45.928;20.078;2022-10-16T05:27:48;18.07;;;7.33;;
71166;SDS011;58864;45.928;20.078;2022-10-16T05:30:17;14.95;;;6.82;;
71166;SDS011;58864;45.928;20.078;2022-10-16T05:32:48;16.73;;;6.90;;
71166;SDS011;58864;45.928;20.078;2022-10-16T05:35:13;14.43;;;6.10;;
71166;SDS011;58864;45.928;20.078;2022-10-16T05:37:41;15.60;;;6.20;;
71166;SDS011;58864;45.928;20.078;2022-10-16T05:40:09;15.23;;;6.27;;
71166;SDS011;58864;45.928;20.078;2022-10-16T05:42:36;15.23;;;5.95;;
71166;SDS011;58864;45.928;20.078;2022-10-16T05:45:05;14.75;;;6.50;;
71166;SDS011;58864;45.928;20.078;2022-10-16T05:47:32;16.35;;;6.50;;
71166;SDS011;58864;45.928;20.078;2022-10-16T05:49:57;15.43;;;5.88;;
71166;SDS011;58864;45.928;20.078;2022-10-16T05:52:24;14.33;;;5.80;;
71166;SDS011;58864;45.928;20.078;2022-10-16T05:54:49;12.27;;;6.10;;
71166;SDS011;58864;45.928;20.078;2022-10-16T05:57:14;13.55;;;5.93;;
71166;SDS011;58864;45.928;20.078;2022-10-16T05:59:39;12.80;;;5.93;;
71166;SDS011;58864;45.928;20.078;2022-10-16T06:02:04;12.25;;;5.38;;
71166;SDS011;58864;45.928;20.078;2022-10-16T06:04:29;17.50;;;5.30;;
71166;SDS011;58864;45.928;20.078;2022-10-16T06:06:57;11.70;;;5.38;;
71166;SDS011;58864;45.928;20.078;2022-10-16T06:09:25;12.93;;;5.50;;
71166;SDS011;58864;45.928;20.078;2022-10-16T06:11:50;10.85;;;5.00;;
71166;SDS011;58864;45.928;20.078;2022-10-16T06:14:16;14.73;;;6.03;;
71166;SDS011;58864;45.928;20.078;2022-10-16T06:16:41;13.95;;;6.18;;
71166;SDS011;58864;45.928;20.078;2022-10-16T06:19:07;16.02;;;5.90;;
71166;SDS011;58864;45.928;20.078;2022-10-16T06:21:32;12.27;;;5.20;;
71166;SDS011;58864;45.928;20.078;2022-10-16T06:23:58;12.75;;;5.40;;
71166;SDS011;58864;45.928;20.078;2022-10-16T06:26:24;12.23;;;5.40;;
71166;SDS011;58864;45.928;20.078;2022-10-16T06:28:51;12.32;;;5.53;;
71166;SDS011;58864;45.928;20.078;2022-10-16T06:31:16;13.68;;;5.50;;
71166;SDS011;58864;45.928;20.078;2022-10-16T06:33:41;11.47;;;5.43;;
71166;SDS011;58864;45.928;20.078;2022-10-16T06:36:07;11.80;;;5.80;;
71166;SDS011;58864;45.928;20.078;2022-10-16T06:38:36;12.43;;;5.80;;
71166;SDS011;58864;45.928;20.078;2022-10-16T06:41:01;14.87;;;5.47;;
71166;SDS011;58864;45.928;20.078;2022-10-16T06:43:26;11.98;;;5.85;;
71166;SDS011;58864;45.928;20.078;2022-10-16T06:45:55;10.45;;;5.07;;
71166;SDS011;58864;45.928;20.078;2022-10-16T06:48:20;12.77;;;5.70;;
71166;SDS011;58864;45.928;20.078;2022-10-16T06:53:54;12.77;;;4.55;;
71166;SDS011;58864;45.928;20.078;2022-10-16T06:56:21;11.05;;;4.05;;
71166;SDS011;58864;45.928;20.078;2022-10-16T06:58:49;9.88;;;4.15;;
71166;SDS011;58864;45.928;20.078;2022-10-16T07:01:14;10.77;;;4.57;;
71166;SDS011;58864;45.928;20.078;2022-10-16T07:03:39;10.10;;;4.32;;
71166;SDS011;58864;45.928;20.078;2022-10-16T07:06:08;12.75;;;4.57;;
71166;SDS011;58864;45.928;20.078;2022-10-16T07:08:38;10.93;;;5.00;;
71166;SDS011;58864;45.928;20.078;2022-10-16T07:11:05;10.88;;;4.63;;
71166;SDS011;58864;45.928;20.078;2022-10-16T07:13:36;12.43;;;5.10;;
71166;SDS011;58864;45.928;20.078;2022-10-16T07:16:08;9.30;;;4.22;;
71166;SDS011;58864;45.928;20.078;2022-10-16T07:18:36;11.68;;;4.53;;
71166;SDS011;58864;45.928;20.078;2022-10-16T07:21:06;10.15;;;4.65;;
71166;SDS011;58864;45.928;20.078;2022-10-16T07:23:38;10.82;;;4.40;;
71166;SDS011;58864;45.928;20.078;2022-10-16T07:26:06;8.70;;;3.90;;
71166;SDS011;58864;45.928;20.078;2022-10-16T07:28:32;11.38;;;4.07;;
71166;SDS011;58864;45.928;20.078;2022-10-16T07:31:02;8.63;;;4.00;;
71166;SDS011;58864;45.928;20.078;2022-10-16T07:33:28;9.43;;;4.20;;
71166;SDS011;58864;45.928;20.078;2022-10-16T07:35:56;9.77;;;4.03;;
71166;SDS011;58864;45.928;20.078;2022-10-16T07:38:24;13.23;;;4.33;;
71166;SDS011;58864;45.928;20.078;2022-10-16T07:41:04;11.63;;;4.00;;
71166;SDS011;58864;45.928;20.078;2022-10-16T07:43:30;12.23;;;4.15;;
71166;SDS011;58864;45.928;20.078;2022-10-16T07:45:56;11.27;;;4.68;;
71166;SDS011;58864;45.928;20.078;2022-10-16T07:48:22;9.80;;;4.03;;
71166;SDS011;58864;45.928;20.078;2022-10-16T07:50:48;10.27;;;4.00;;
71166;SDS011;58864;45.928;20.078;2022-10-16T07:53:16;8.98;;;3.92;;
71166;SDS011;58864;45.928;20.078;2022-10-16T07:55:41;12.95;;;4.32;;
71166;SDS011;58864;45.928;20.078;2022-10-16T07:58:08;9.07;;;4.18;;
71166;SDS011;58864;45.928;20.078;2022-10-16T08:00:35;9.48;;;4.15;;
71166;SDS011;58864;45.928;20.078;2022-10-16T08:03:01;9.20;;;3.90;;
71166;SDS011;58864;45.928;20.078;2022-10-16T08:05:26;8.88;;;3.72;;
71166;SDS011;58864;45.928;20.078;2022-10-16T08:07:55;10.00;;;4.00;;
71166;SDS011;58864;45.928;20.078;2022-10-16T08:10:21;8.45;;;3.72;;
71166;SDS011;58864;45.928;20.078;2022-10-16T08:12:47;12.98;;;3.45;;
71166;SDS011;58864;45.928;20.078;2022-10-16T08:15:14;11.37;;;3.67;;
71166;SDS011;58864;45.928;20.078;2022-10-16T08:17:38;7.25;;;3.25;;
71166;SDS011;58864;45.928;20.078;2022-10-16T08:20:05;11.30;;;3.65;;
71166;SDS011;58864;45.928;20.078;2022-10-16T08:22:33;12.35;;;4.78;;
71166;SDS011;58864;45.928;20.078;2022-10-16T08:24:59;14.40;;;4.43;;
71166;SDS011;58864;45.928;20.078;2022-10-16T08:27:24;10.27;;;3.80;;
71166;SDS011;58864;45.928;20.078;2022-10-16T08:29:51;10.83;;;3.90;;
71166;SDS011;58864;45.928;20.078;2022-10-16T08:32:16;11.07;;;3.97;;
71166;SDS011;58864;45.928;20.078;2022-10-16T08:34:44;432.75;;;74.63;;
71166;SDS011;58864;45.928;20.078;2022-10-16T08:37:08;112.95;;;20.40;;
71166;SDS011;58864;45.928;20.078;2022-10-16T08:39:37;82.20;;;18.73;;
71166;SDS011;58864;45.928;20.078;2022-10-16T08:45:00;179.82;;;37.03;;
71166;SDS011;58864;45.928;20.078;2022-10-16T08:50:09;26.55;;;8.57;;
71166;SDS011;58864;45.928;20.078;2022-10-16T08:52:40;90.87;;;25.67;;
71166;SDS011;58864;45.928;20.078;2022-10-16T08:55:16;139.75;;;36.53;;
71166;SDS011;58864;45.928;20.078;2022-10-16T08:57:50;24.92;;;8.13;;
71166;SDS011;58864;45.928;20.078;2022-10-16T09:00:18;16.88;;;5.13;;
71166;SDS011;58864;45.928;20.078;2022-10-16T09:02:53;11.35;;;4.60;;
71166;SDS011;58864;45.928;20.078;2022-10-16T09:11:00;9.23;;;3.58;;
71166;SDS011;58864;45.928;20.078;2022-10-16T09:21:39;29.20;;;9.40;;
71166;SDS011;58864;45.928;20.078;2022-10-16T09:24:21;174.35;;;39.75;;
71166;SDS011;58864;45.928;20.078;2022-10-16T09:26:51;77.85;;;21.50;;
71166;SDS011;58864;45.928;20.078;2022-10-16T09:29:19;146.18;;;34.15;;
71166;SDS011;58864;45.928;20.078;2022-10-16T09:31:46;80.60;;;21.20;;
71166;SDS011;58864;45.928;20.078;2022-10-16T09:34:20;70.03;;;17.15;;
71166;SDS011;58864;45.928;20.078;2022-10-16T09:36:56;16.40;;;5.05;;
71166;SDS011;58864;45.928;20.078;2022-10-16T09:39:25;10.15;;;3.38;;
71166;SDS011;58864;45.928;20.078;2022-10-16T09:41:49;8.57;;;3.47;;
71166;SDS011;58864;45.928;20.078;2022-10-16T09:44:24;18.83;;;4.10;;
71166;SDS011;58864;45.928;20.078;2022-10-16T09:50:19;8.63;;;3.40;;
71166;SDS011;58864;45.928;20.078;2022-10-16T09:53:02;9.17;;;3.13;;
71166;SDS011;58864;45.928;20.078;2022-10-16T09:55:35;16.77;;;3.60;;
71166;SDS011;58864;45.928;20.078;2022-10-16T09:58:03;9.68;;;3.47;;
71166;SDS011;58864;45.928;20.078;2022-10-16T10:00:38;12.68;;;4.03;;
71166;SDS011;58864;45.928;20.078;2022-10-16T10:03:13;9.40;;;2.72;;
71166;SDS011;58864;45.928;20.078;2022-10-16T10:05:56;9.70;;;2.77;;
71166;SDS011;58864;45.928;20.078;2022-10-16T10:08:23;10.10;;;2.55;;
71166;SDS011;58864;45.928;20.078;2022-10-16T10:10:50;6.90;;;2.40;;
71166;SDS011;58864;45.928;20.078;2022-10-16T10:13:18;7.63;;;2.75;;
71166;SDS011;58864;45.928;20.078;2022-10-16T10:15:47;7.32;;;2.40;;
71166;SDS011;58864;45.928;20.078;2022-10-16T10:18:16;8.33;;;2.30;;
71166;SDS011;58864;45.928;20.078;2022-10-16T10:21:02;7.32;;;2.58;;
71166;SDS011;58864;45.928;20.078;2022-10-16T10:23:28;5.80;;;2.30;;
71166;SDS011;58864;45.928;20.078;2022-10-16T10:37:02;8.57;;;2.20;;
71166;SDS011;58864;45.928;20.078;2022-10-16T10:39:36;6.07;;;2.28;;
71166;SDS011;58864;45.928;20.078;2022-10-16T10:47:21;8.20;;;2.58;;
71166;SDS011;58864;45.928;20.078;2022-10-16T10:58:24;6.37;;;2.00;;
71166;SDS011;58864;45.928;20.078;2022-10-16T11:01:03;12.88;;;3.00;;
71166;SDS011;58864;45.928;20.078;2022-10-16T11:06:06;8.02;;;2.33;;
71166;SDS011;58864;45.928;20.078;2022-10-16T11:08:40;11.95;;;3.42;;
71166;SDS011;58864;45.928;20.078;2022-10-16T11:16:30;8.70;;;3.30;;
71166;SDS011;58864;45.928;20.078;2022-10-16T11:19:10;10.02;;;2.70;;
71166;SDS011;58864;45.928;20.078;2022-10-16T11:21:49;7.20;;;2.42;;
71166;SDS011;58864;45.928;20.078;2022-10-16T11:24:27;7.27;;;2.50;;
71166;SDS011;58864;45.928;20.078;2022-10-16T11:27:19;10.77;;;3.17;;
71166;SDS011;58864;45.928;20.078;2022-10-16T11:29:57;14.13;;;2.80;;
71166;SDS011;58864;45.928;20.078;2022-10-16T11:32:33;8.35;;;2.50;;
71166;SDS011;58864;45.928;20.078;2022-10-16T11:35:33;5.85;;;2.40;;
71166;SDS011;58864;45.928;20.078;2022-10-16T11:38:08;6.23;;;2.30;;
71166;SDS011;58864;45.928;20.078;2022-10-16T11:40:48;7.88;;;2.28;;
71166;SDS011;58864;45.928;20.078;2022-10-16T11:45:51;11.25;;;2.92;;
71166;SDS011;58864;45.928;20.078;2022-10-16T11:48:30;8.32;;;2.28;;
71166;SDS011;58864;45.928;20.078;2022-10-16T11:51:06;5.77;;;2.17;;
71166;SDS011;58864;45.928;20.078;2022-10-16T11:53:45;5.50;;;2.13;;
71166;SDS011;58864;45.928;20.078;2022-10-16T11:56:19;6.25;;;2.08;;
71166;SDS011;58864;45.928;20.078;2022-10-16T11:58:56;5.32;;;2.50;;
71166;SDS011;58864;45.928;20.078;2022-10-16T12:01:38;9.98;;;2.95;;
71166;SDS011;58864;45.928;20.078;2022-10-16T12:04:18;16.70;;;2.40;;
71166;SDS011;58864;45.928;20.078;2022-10-16T12:07:02;8.88;;;2.47;;
71166;SDS011;58864;45.928;20.078;2022-10-16T12:09:32;6.68;;;2.35;;
71166;SDS011;58864;45.928;20.078;2022-10-16T12:12:02;4.85;;;2.13;;
71166;SDS011;58864;45.928;20.078;2022-10-16T12:17:26;15.37;;;4.83;;
71166;SDS011;58864;45.928;20.078;2022-10-16T12:22:41;6.47;;;2.45;;
71166;SDS011;58864;45.928;20.078;2022-10-16T12:25:29;10.30;;;2.75;;
71166;SDS011;58864;45.928;20.078;2022-10-16T12:28:06;7.68;;;2.03;;
71166;SDS011;58864;45.928;20.078;2022-10-16T12:30:53;13.87;;;6.50;;
71166;SDS011;58864;45.928;20.078;2022-10-16T12:33:29;8.98;;;3.65;;
71166;SDS011;58864;45.928;20.078;2022-10-16T12:35:58;11.48;;;5.32;;
71166;SDS011;58864;45.928;20.078;2022-10-16T12:38:30;6.25;;;2.85;;
71166;SDS011;58864;45.928;20.078;2022-10-16T12:41:12;8.43;;;3.97;;
71166;SDS011;58864;45.928;20.078;2022-10-16T12:43:50;13.33;;;4.20;;
71166;SDS011;58864;45.928;20.078;2022-10-16T12:48:44;7.28;;;2.17;;
71166;SDS011;58864;45.928;20.078;2022-10-16T12:54:01;9.45;;;2.40;;
71166;SDS011;58864;45.928;20.078;2022-10-16T12:59:34;7.82;;;3.17;;
71166;SDS011;58864;45.928;20.078;2022-10-16T13:10:26;7.07;;;2.33;;
71166;SDS011;58864;45.928;20.078;2022-10-16T13:16:08;9.30;;;2.33;;
71166;SDS011;58864;45.928;20.078;2022-10-16T13:18:50;7.65;;;2.50;;
71166;SDS011;58864;45.928;20.078;2022-10-16T13:30:17;9.55;;;2.53;;
71166;SDS011;58864;45.928;20.078;2022-10-16T13:32:48;11.88;;;2.58;;
71166;SDS011;58864;45.928;20.078;2022-10-16T13:35:20;7.13;;;2.40;;
71166;SDS011;58864;45.928;20.078;2022-10-16T13:37:50;7.60;;;2.20;;
71166;SDS011;58864;45.928;20.078;2022-10-16T13:40:22;5.63;;;2.15;;
71166;SDS011;58864;45.928;20.078;2022-10-16T13:42:50;7.97;;;2.20;;
71166;SDS011;58864;45.928;20.078;2022-10-16T13:45:21;6.80;;;2.50;;
71166;SDS011;58864;45.928;20.078;2022-10-16T13:47:49;9.82;;;2.58;;
71166;SDS011;58864;45.928;20.078;2022-10-16T13:50:16;8.20;;;3.10;;
71166;SDS011;58864;45.928;20.078;2022-10-16T13:52:41;7.07;;;2.90;;
71166;SDS011;58864;45.928;20.078;2022-10-16T13:55:15;8.20;;;3.42;;
71166;SDS011;58864;45.928;20.078;2022-10-16T13:57:44;13.15;;;4.00;;
71166;SDS011;58864;45.928;20.078;2022-10-16T14:02:51;11.35;;;3.00;;
71166;SDS011;58864;45.928;20.078;2022-10-16T14:05:21;6.67;;;2.87;;
71166;SDS011;58864;45.928;20.078;2022-10-16T14:07:50;7.90;;;2.70;;
71166;SDS011;58864;45.928;20.078;2022-10-16T14:10:22;6.30;;;2.33;;
71166;SDS011;58864;45.928;20.078;2022-10-16T14:12:58;8.30;;;2.83;;
71166;SDS011;58864;45.928;20.078;2022-10-16T14:15:24;6.50;;;2.72;;
71166;SDS011;58864;45.928;20.078;2022-10-16T14:17:50;10.27;;;2.63;;
71166;SDS011;58864;45.928;20.078;2022-10-16T14:20:20;6.40;;;2.63;;
71166;SDS011;58864;45.928;20.078;2022-10-16T14:22:45;9.32;;;3.00;;
71166;SDS011;58864;45.928;20.078;2022-10-16T14:27:56;8.77;;;2.60;;
71166;SDS011;58864;45.928;20.078;2022-10-16T14:30:23;6.63;;;2.83;;
71166;SDS011;58864;45.928;20.078;2022-10-16T14:32:58;9.50;;;2.70;;
71166;SDS011;58864;45.928;20.078;2022-10-16T14:38:01;7.40;;;2.30;;
71166;SDS011;58864;45.928;20.078;2022-10-16T14:40:29;6.90;;;2.67;;
71166;SDS011;58864;45.928;20.078;2022-10-16T14:42:57;6.97;;;2.60;;
71166;SDS011;58864;45.928;20.078;2022-10-16T14:45:25;7.25;;;2.60;;
71166;SDS011;58864;45.928;20.078;2022-10-16T14:47:58;8.23;;;2.47;;
71166;SDS011;58864;45.928;20.078;2022-10-16T14:50:24;6.13;;;2.47;;
71166;SDS011;58864;45.928;20.078;2022-10-16T14:52:50;7.78;;;2.67;;
71166;SDS011;58864;45.928;20.078;2022-10-16T14:55:14;10.32;;;2.28;;
71166;SDS011;58864;45.928;20.078;2022-10-16T14:57:42;7.40;;;2.60;;
71166;SDS011;58864;45.928;20.078;2022-10-16T15:00:09;6.93;;;2.58;;
71166;SDS011;58864;45.928;20.078;2022-10-16T15:02:40;11.50;;;2.60;;
71166;SDS011;58864;45.928;20.078;2022-10-16T15:07:40;6.95;;;2.72;;
71166;SDS011;58864;45.928;20.078;2022-10-16T15:10:06;7.57;;;2.23;;
71166;SDS011;58864;45.928;20.078;2022-10-16T15:12:32;15.52;;;2.70;;
71166;SDS011;58864;45.928;20.078;2022-10-16T15:15:00;6.15;;;2.33;;
71166;SDS011;58864;45.928;20.078;2022-10-16T15:17:26;7.80;;;2.70;;
71166;SDS011;58864;45.928;20.078;2022-10-16T15:19:51;7.23;;;2.73;;
71166;SDS011;58864;45.928;20.078;2022-10-16T15:22:16;6.55;;;2.50;;
71166;SDS011;58864;45.928;20.078;2022-10-16T15:24:43;7.38;;;2.63;;
71166;SDS011;58864;45.928;20.078;2022-10-16T15:27:08;8.60;;;2.63;;
71166;SDS011;58864;45.928;20.078;2022-10-16T15:29:33;7.90;;;2.83;;
71166;SDS011;58864;45.928;20.078;2022-10-16T15:31:59;8.87;;;3.10;;
71166;SDS011;58864;45.928;20.078;2022-10-16T15:34:24;7.78;;;3.30;;
71166;SDS011;58864;45.928;20.078;2022-10-16T15:36:49;8.93;;;3.13;;
71166;SDS011;58864;45.928;20.078;2022-10-16T15:39:16;10.67;;;3.07;;
71166;SDS011;58864;45.928;20.078;2022-10-16T15:41:45;9.65;;;3.60;;
71166;SDS011;58864;45.928;20.078;2022-10-16T15:44:20;9.85;;;4.28;;
71166;SDS011;58864;45.928;20.078;2022-10-16T15:46:54;12.55;;;5.03;;
71166;SDS011;58864;45.928;20.078;2022-10-16T15:49:18;16.58;;;5.75;;
71166;SDS011;58864;45.928;20.078;2022-10-16T15:51:46;15.70;;;6.60;;
71166;SDS011;58864;45.928;20.078;2022-10-16T15:54:14;15.85;;;6.68;;
71166;SDS011;58864;45.928;20.078;2022-10-16T15:56:39;14.40;;;6.78;;
71166;SDS011;58864;45.928;20.078;2022-10-16T15:59:05;19.23;;;8.48;;
71166;SDS011;58864;45.928;20.078;2022-10-16T16:01:37;26.83;;;12.63;;
71166;SDS011;58864;45.928;20.078;2022-10-16T16:04:06;34.13;;;14.57;;
71166;SDS011;58864;45.928;20.078;2022-10-16T16:06:32;38.95;;;15.93;;
71166;SDS011;58864;45.928;20.078;2022-10-16T16:08:59;34.03;;;13.73;;
71166;SDS011;58864;45.928;20.078;2022-10-16T16:11:27;32.63;;;14.02;;
71166;SDS011;58864;45.928;20.078;2022-10-16T16:13:52;31.85;;;12.65;;
71166;SDS011;58864;45.928;20.078;2022-10-16T16:16:19;25.33;;;11.03;;
71166;SDS011;58864;45.928;20.078;2022-10-16T16:18:45;28.85;;;12.82;;
71166;SDS011;58864;45.928;20.078;2022-10-16T16:21:13;33.95;;;14.43;;
71166;SDS011;58864;45.928;20.078;2022-10-16T16:23:38;35.50;;;15.32;;
71166;SDS011;58864;45.928;20.078;2022-10-16T16:26:04;58.47;;;24.67;;
71166;SDS011;58864;45.928;20.078;2022-10-16T16:28:39;139.93;;;59.37;;
71166;SDS011;58864;45.928;20.078;2022-10-16T16:31:04;125.55;;;50.97;;
71166;SDS011;58864;45.928;20.078;2022-10-16T16:33:32;118.30;;;50.53;;
71166;SDS011;58864;45.928;20.078;2022-10-16T16:36:01;103.35;;;45.70;;
71166;SDS011;58864;45.928;20.078;2022-10-16T16:38:28;110.15;;;49.22;;
71166;SDS011;58864;45.928;20.078;2022-10-16T16:40:53;82.40;;;41.63;;
71166;SDS011;58864;45.928;20.078;2022-10-16T16:43:22;79.50;;;36.95;;
71166;SDS011;58864;45.928;20.078;2022-10-16T16:45:51;69.18;;;30.27;;